createdAt,value
2022-12-03T00:01:14.257Z,98536.69
2022-12-03T00:03:19.349Z,98526.38
2022-12-03T00:05:23.986Z,98528.91
2022-12-03T00:07:28.826Z,98531.47
2022-12-03T00:09:33.725Z,98534.88
2022-12-03T00:11:38.474Z,98533.19
2022-12-03T00:13:45.984Z,98532.31
2022-12-03T00:15:50.876Z,98528.88
2022-12-03T00:17:55.858Z,98531.50
2022-12-03T00:20:00.613Z,98535.81
2022-12-03T00:22:05.538Z,98530.72
2022-12-03T00:24:11.441Z,98537.59
2022-12-03T00:26:16.199Z,98531.63
2022-12-03T00:28:20.994Z,98536.81
2022-12-03T00:30:28.438Z,98528.19
2022-12-03T00:32:33.200Z,98528.16
2022-12-03T00:34:38.032Z,98531.56
2022-12-03T00:36:42.800Z,98519.59
2022-12-03T00:38:47.624Z,98525.56
2022-12-03T00:40:52.536Z,98526.41
2022-12-03T00:42:57.425Z,98532.41
2022-12-03T00:45:02.250Z,98525.53
2022-12-03T00:47:09.922Z,98532.41
2022-12-03T00:49:14.762Z,98532.41
2022-12-03T00:51:19.585Z,98522.09
2022-12-03T00:53:24.342Z,98523.88
2022-12-03T00:55:29.175Z,98527.38
2022-12-03T00:57:33.945Z,98523.06
2022-12-03T00:59:40.272Z,98539.31
2022-12-03T01:01:45.106Z,98528.22
2022-12-03T01:03:52.536Z,98525.63
2022-12-03T01:05:58.774Z,98532.50
2022-12-03T01:08:03.736Z,98532.47
2022-12-03T01:10:10.362Z,98532.41
2022-12-03T01:12:15.297Z,98527.25
2022-12-03T01:14:22.197Z,98525.50
2022-12-03T01:16:27.072Z,98530.63
2022-12-03T01:18:31.957Z,98533.31
2022-12-03T01:20:39.377Z,98533.31
2022-12-03T01:22:44.339Z,98533.31
2022-12-03T01:24:49.364Z,98541.00
2022-12-03T01:26:55.882Z,98535.81
2022-12-03T01:29:00.704Z,98534.94
2022-12-03T01:31:17.989Z,98533.22
2022-12-03T01:33:22.836Z,98534.06
2022-12-03T01:35:27.791Z,98531.50
2022-12-03T01:37:35.211Z,98534.19
2022-12-03T01:39:39.980Z,98538.47
2022-12-03T01:41:45.106Z,98534.22
2022-12-03T01:43:50.866Z,98536.78
2022-12-03T01:45:55.720Z,98535.97
2022-12-03T01:48:00.832Z,98536.78
2022-12-03T01:50:20.323Z,98531.59
2022-12-03T01:52:30.029Z,98531.59
2022-12-03T01:54:41.173Z,98529.09
2022-12-03T01:56:46.228Z,98533.34
2022-12-03T01:58:51.661Z,98531.66
2022-12-03T02:00:56.589Z,98535.06
2022-12-03T02:03:03.574Z,98531.63
2022-12-03T02:05:13.556Z,98527.31
2022-12-03T02:07:20.684Z,98535.84
2022-12-03T02:09:25.414Z,98535.78
2022-12-03T02:11:38.003Z,98532.28
2022-12-03T02:13:43.209Z,98537.44
2022-12-03T02:15:51.113Z,98533.19
2022-12-03T02:17:59.227Z,98534.91
2022-12-03T02:20:06.018Z,98528.81
2022-12-03T02:22:19.415Z,98526.19
2022-12-03T02:24:32.655Z,98532.16
2022-12-03T02:26:40.308Z,98525.31
2022-12-03T02:28:46.600Z,98528.75
2022-12-03T02:30:51.939Z,98531.31
2022-12-03T02:32:57.442Z,98534.78
2022-12-03T02:35:02.270Z,98527.09
2022-12-03T02:37:09.472Z,98532.28
2022-12-03T02:39:14.330Z,98537.41
2022-12-03T02:41:33.982Z,98533.97
2022-12-03T02:43:41.698Z,98540.06
2022-12-03T02:45:49.160Z,98533.19
2022-12-03T02:47:57.666Z,98535.75
2022-12-03T02:50:03.524Z,98531.41
2022-12-03T02:53:56.019Z,98531.34
2022-12-03T02:54:51.738Z,98533.16
2022-12-03T02:57:26.683Z,98531.34
2022-12-03T02:59:34.457Z,98532.22
2022-12-03T03:01:39.598Z,98530.47
2022-12-03T03:03:44.606Z,98531.31
2022-12-03T03:05:53.095Z,98533.16
2022-12-03T03:08:00.252Z,98540.00
2022-12-03T03:10:08.167Z,98542.56
2022-12-03T03:12:16.002Z,98540.88
2022-12-03T03:14:48.924Z,98541.81
2022-12-03T03:16:58.547Z,98538.34
2022-12-03T03:19:03.985Z,98534.09
2022-12-03T03:21:09.403Z,98541.78
2022-12-03T03:23:21.268Z,98547.75
2022-12-03T03:25:55.502Z,98548.66
2022-12-03T03:28:36.373Z,98538.41
2022-12-03T03:31:13.159Z,98540.09
2022-12-03T03:33:31.639Z,98545.28
2022-12-03T03:35:37.462Z,98543.56
2022-12-03T03:38:12.396Z,98541.03
2022-12-03T03:40:25.829Z,98534.19
2022-12-03T03:42:45.076Z,98544.53
2022-12-03T03:46:01.138Z,98543.72
2022-12-03T03:48:49.563Z,98544.59
2022-12-03T03:52:23.016Z,98543.78
2022-12-03T04:00:59.226Z,98552.53
2022-12-03T04:03:24.365Z,98543.97
2022-12-03T04:06:19.322Z,98542.25
2022-12-03T04:09:07.199Z,98535.41
2022-12-03T04:12:27.046Z,98538.03
2022-12-03T04:14:36.325Z,98539.75
2022-12-03T04:17:39.368Z,98535.44
2022-12-03T04:20:05.708Z,98528.56
2022-12-03T04:25:33.749Z,98532.81
2022-12-03T04:28:31.864Z,98526.00
2022-12-03T04:31:02.909Z,98528.56
2022-12-03T04:39:11.779Z,98515.50
2022-12-03T04:41:27.446Z,98516.34
2022-12-03T04:44:31.209Z,98508.63
2022-12-03T05:06:53.607Z,98511.31
2022-12-03T05:09:03.183Z,98508.66
2022-12-03T05:11:15.215Z,98508.69
2022-12-03T05:13:26.278Z,98510.41
2022-12-03T05:16:00.955Z,98509.56
2022-12-03T05:18:13.091Z,98508.69
2022-12-03T05:20:31.239Z,98499.25
2022-12-03T05:22:38.818Z,98500.06
2022-12-03T05:24:43.593Z,98500.06
2022-12-03T05:26:48.546Z,98496.66
2022-12-03T05:28:53.584Z,98498.38
2022-12-03T05:30:58.466Z,98498.38
2022-12-03T05:33:03.330Z,98499.19
2022-12-03T05:35:09.156Z,98500.94
2022-12-03T05:37:14.164Z,98506.06
2022-12-03T05:39:21.545Z,98501.72
2022-12-03T05:41:38.841Z,98500.00
2022-12-03T05:43:43.615Z,98493.19
2022-12-03T05:45:48.724Z,98496.56
2022-12-03T05:47:54.406Z,98501.72
2022-12-03T05:49:59.174Z,98494.81
2022-12-03T05:52:03.950Z,98499.09
2022-12-03T05:54:08.960Z,98498.22
2022-12-03T05:56:16.353Z,98494.84
2022-12-03T05:58:21.134Z,98489.69
2022-12-03T06:00:28.343Z,98496.53
2022-12-03T06:02:33.216Z,98496.59
2022-12-03T06:04:38.221Z,98494.06
2022-12-03T06:06:42.968Z,98489.72
2022-12-03T06:08:47.935Z,98492.28
2022-12-03T06:10:52.719Z,98490.63
2022-12-03T06:13:01.002Z,98496.66
2022-12-03T06:15:06.222Z,98494.97
2022-12-03T06:17:10.818Z,98494.16
2022-12-03T06:19:15.699Z,98497.63
2022-12-03T06:21:20.532Z,98506.97
2022-12-03T06:23:25.293Z,98507.81
2022-12-03T06:25:30.225Z,98504.34
2022-12-03T06:27:35.012Z,98506.94
2022-12-03T06:29:42.421Z,98512.03
2022-12-03T06:31:47.381Z,98506.03
2022-12-03T06:33:52.296Z,98512.91
2022-12-03T06:35:57.035Z,98518.03
2022-12-03T06:38:01.851Z,98527.44
2022-12-03T06:40:07.385Z,98518.88
2022-12-03T06:42:12.168Z,98524.06
2022-12-03T06:44:16.972Z,98524.03
2022-12-03T06:46:24.469Z,98533.41
2022-12-03T06:48:29.476Z,98527.41
2022-12-03T06:50:34.678Z,98529.09
2022-12-03T06:52:39.475Z,98527.38
2022-12-03T06:54:44.505Z,98544.53
2022-12-03T06:56:49.271Z,98536.84
2022-12-03T06:58:56.883Z,98533.38
2022-12-03T07:01:01.669Z,98533.31
2022-12-03T07:03:09.099Z,98535.03
2022-12-03T07:05:14.009Z,98537.56
2022-12-03T07:07:18.889Z,98530.66
2022-12-03T07:09:23.702Z,98540.97
2022-12-03T07:11:40.072Z,98532.41
2022-12-03T07:13:44.931Z,98534.19
2022-12-03T07:15:49.808Z,98530.72
2022-12-03T07:17:57.204Z,98540.22
2022-12-03T07:20:04.866Z,98538.56
2022-12-03T07:22:10.414Z,98542.84
2022-12-03T07:24:15.255Z,98540.22
2022-12-03T07:26:20.049Z,98530.78
2022-12-03T07:28:24.856Z,98532.47
2022-12-03T07:30:29.608Z,98534.19
2022-12-03T07:32:35.101Z,98543.63
2022-12-03T07:34:39.887Z,98539.25
2022-12-03T07:36:47.327Z,98543.50
2022-12-03T07:38:52.887Z,98535.78
2022-12-03T07:40:57.737Z,98533.28
2022-12-03T07:43:02.506Z,98529.84
2022-12-03T07:45:08.472Z,98529.88
2022-12-03T07:47:13.321Z,98533.31
2022-12-03T07:49:18.132Z,98535.13
2022-12-03T07:51:26.190Z,98525.66
2022-12-03T07:53:38.689Z,98527.38
2022-12-03T07:55:43.465Z,98531.56
2022-12-03T07:57:51.050Z,98532.41
2022-12-03T07:59:55.813Z,98532.34
2022-12-03T08:02:00.666Z,98534.91
2022-12-03T08:04:05.477Z,98534.88
2022-12-03T08:06:10.652Z,98527.16
2022-12-03T08:08:15.437Z,98525.41
2022-12-03T08:10:22.998Z,98527.13
2022-12-03T08:12:40.314Z,98532.22
2022-12-03T08:14:45.793Z,98522.78
2022-12-03T08:16:50.927Z,98522.78
2022-12-03T08:18:57.662Z,98520.22
2022-12-03T08:21:02.692Z,98521.94
2022-12-03T08:23:15.305Z,98516.75
2022-12-03T08:25:25.386Z,98514.22
2022-12-03T08:27:30.201Z,98516.78
2022-12-03T08:29:35.009Z,98520.25
2022-12-03T08:31:39.981Z,98509.09
2022-12-03T08:33:44.850Z,98510.81
2022-12-03T08:35:52.806Z,98509.09
2022-12-03T08:38:02.035Z,98509.97
2022-12-03T08:40:30.072Z,98508.25
2022-12-03T08:42:43.213Z,98504.84
2022-12-03T08:44:48.115Z,98511.81
2022-12-03T08:46:57.135Z,98504.03
2022-12-03T08:49:01.976Z,98500.59
2022-12-03T08:51:14.057Z,98493.78
2022-12-03T08:53:28.726Z,98493.88
2022-12-03T08:55:39.306Z,98496.41
2022-12-03T08:57:44.515Z,98501.63
2022-12-03T08:59:49.672Z,98512.72
2022-12-03T09:01:56.223Z,98515.31
2022-12-03T09:04:19.538Z,98505.88
2022-12-03T09:06:24.765Z,98499.00
2022-12-03T09:08:29.584Z,98497.28
2022-12-03T09:10:37.033Z,98511.88
2022-12-03T09:12:41.788Z,98522.91
2022-12-03T09:14:46.682Z,98515.16
2022-12-03T09:16:56.129Z,98507.38
2022-12-03T09:19:01.243Z,98512.50
2022-12-03T09:21:06.015Z,98518.44
2022-12-03T09:23:10.876Z,98515.88
2022-12-03T09:25:16.110Z,98515.06
2022-12-03T09:27:23.673Z,98516.78
2022-12-03T09:29:28.500Z,98526.16
2022-12-03T09:31:34.365Z,98523.66
2022-12-03T09:33:39.177Z,98518.44
2022-12-03T09:35:44.015Z,98521.03
2022-12-03T09:37:49.120Z,98520.06
2022-12-03T09:39:53.957Z,98526.09
2022-12-03T09:41:58.971Z,98510.66
2022-12-03T09:44:08.512Z,98515.78
2022-12-03T09:46:16.360Z,98517.53
2022-12-03T09:48:23.508Z,98504.66
2022-12-03T09:50:29.850Z,98514.09
2022-12-03T09:52:36.393Z,98518.44
2022-12-03T09:54:46.843Z,98506.34
2022-12-03T09:56:52.360Z,98507.19
2022-12-03T09:58:57.293Z,98510.59
2022-12-03T10:01:04.809Z,98504.44
2022-12-03T10:03:10.677Z,98511.25
2022-12-03T10:05:15.827Z,98513.81
2022-12-03T10:07:20.718Z,98504.41
2022-12-03T10:09:28.472Z,98504.34
2022-12-03T10:11:33.823Z,98499.16
2022-12-03T10:13:38.897Z,98497.47
2022-12-03T10:15:43.737Z,98489.75
2022-12-03T10:17:54.605Z,98485.53
2022-12-03T10:19:59.435Z,98480.47
2022-12-03T10:22:04.831Z,98474.50
2022-12-03T10:24:26.036Z,98468.47
2022-12-03T10:26:42.499Z,98457.28
2022-12-03T10:28:50.298Z,98445.31
2022-12-03T10:30:57.529Z,98438.41
2022-12-03T10:33:19.049Z,98439.28
2022-12-03T10:35:26.721Z,98448.66
2022-12-03T10:37:31.523Z,98450.31
2022-12-03T10:39:56.222Z,98447.56
2022-12-03T10:42:17.630Z,98438.06
2022-12-03T10:44:25.697Z,98437.16
2022-12-03T10:46:30.724Z,98432.00
2022-12-03T10:48:38.404Z,98435.44
2022-12-03T10:50:54.004Z,98439.69
2022-12-03T10:52:59.010Z,98438.81
2022-12-03T10:55:03.862Z,98437.94
2022-12-03T10:57:08.633Z,98439.56
2022-12-03T10:59:19.040Z,98431.00
2022-12-03T11:01:26.453Z,98432.09
2022-12-03T11:03:33.269Z,98439.00
2022-12-03T11:05:40.795Z,98420.97
2022-12-03T11:07:46.404Z,98419.31
2022-12-03T11:09:54.728Z,98430.50
2022-12-03T11:12:06.977Z,98427.78
2022-12-03T11:14:18.087Z,98428.69
2022-12-03T11:17:13.990Z,98427.00
2022-12-03T11:19:21.138Z,98428.91
2022-12-03T11:21:28.513Z,98421.94
2022-12-03T11:24:03.131Z,98415.94
2022-12-03T11:26:08.115Z,98417.66
2022-12-03T11:28:37.866Z,98415.09
2022-12-03T11:31:02.439Z,98409.84
2022-12-03T11:33:07.838Z,98406.34
2022-12-03T11:35:15.042Z,98407.19
2022-12-03T11:37:31.781Z,98393.47
2022-12-03T11:40:07.991Z,98393.41
2022-12-03T11:42:41.039Z,98391.63
2022-12-03T11:44:45.962Z,98389.09
2022-12-03T11:46:51.089Z,98391.63
2022-12-03T11:48:57.155Z,98384.69
2022-12-03T11:51:02.318Z,98379.50
2022-12-03T11:53:15.591Z,98376.78
2022-12-03T11:55:26.478Z,98383.63
2022-12-03T11:57:35.425Z,98377.47
2022-12-03T11:59:59.893Z,98372.31
2022-12-03T12:02:22.475Z,98368.94
2022-12-03T12:04:33.711Z,98360.41
2022-12-03T12:06:43.963Z,98360.31
2022-12-03T12:09:03.886Z,98357.84
2022-12-03T12:11:19.754Z,98362.00
2022-12-03T12:13:50.864Z,98366.25
2022-12-03T12:15:55.796Z,98361.16
2022-12-03T12:18:20.628Z,98365.47
2022-12-03T12:20:28.115Z,98359.47
2022-12-03T12:22:34.189Z,98351.69
2022-12-03T12:24:54.132Z,98355.16
2022-12-03T12:26:59.712Z,98357.72
2022-12-03T12:29:04.638Z,98345.69
2022-12-03T12:31:15.043Z,98344.75
2022-12-03T12:33:26.330Z,98349.00
2022-12-03T12:35:33.011Z,98341.31
2022-12-03T12:37:47.629Z,98344.75
2022-12-03T12:39:59.535Z,98338.00
2022-12-03T12:42:05.662Z,98338.13
2022-12-03T12:44:13.364Z,98339.00
2022-12-03T12:46:46.776Z,98342.47
2022-12-03T12:48:46.667Z,98326.94
2022-12-03T12:50:54.454Z,98339.88
2022-12-03T12:53:05.069Z,98335.84
2022-12-03T12:55:14.892Z,98332.28
2022-12-03T12:57:24.982Z,98336.50
2022-12-03T12:59:31.642Z,98327.91
2022-12-03T13:01:37.903Z,98326.94
2022-12-03T13:03:43.117Z,98320.91
2022-12-03T13:05:49.816Z,98322.59
2022-12-03T13:07:56.621Z,98317.34
2022-12-03T13:10:03.381Z,98322.38
2022-12-03T13:12:22.697Z,98304.28
2022-12-03T13:14:29.143Z,98312.91
2022-12-03T13:16:35.743Z,98316.50
2022-12-03T13:18:48.146Z,98313.97
2022-12-03T13:20:53.375Z,98320.03
2022-12-03T13:22:58.124Z,98316.81
2022-12-03T13:25:38.240Z,98322.16
2022-12-03T13:27:51.070Z,98331.69
2022-12-03T13:29:58.806Z,98322.38
2022-12-03T13:32:05.695Z,98328.44
2022-12-03T13:34:17.140Z,98329.34
2022-12-03T13:36:23.715Z,98323.38
2022-12-03T13:38:28.495Z,98329.34
2022-12-03T13:40:35.512Z,98328.59
2022-12-03T13:42:42.278Z,98328.59
2022-12-03T13:44:52.072Z,98322.59
2022-12-03T13:46:56.848Z,98325.25
2022-12-03T13:49:02.271Z,98323.56
2022-12-03T13:51:22.475Z,98320.81
2022-12-03T13:53:30.574Z,98323.38
2022-12-03T13:55:35.372Z,98316.66
2022-12-03T13:57:40.400Z,98320.94
2022-12-03T13:59:45.153Z,98320.16
2022-12-03T14:01:52.690Z,98323.63
2022-12-03T14:03:57.790Z,98322.78
2022-12-03T14:06:02.540Z,98315.88
2022-12-03T14:08:08.143Z,98315.06
2022-12-03T14:10:17.037Z,98315.09
2022-12-03T14:12:33.983Z,98315.94
2022-12-03T14:14:39.015Z,98315.09
2022-12-03T14:16:45.199Z,98316.69
2022-12-03T14:18:52.675Z,98312.44
2022-12-03T14:20:57.635Z,98320.09
2022-12-03T14:23:02.466Z,98321.72
2022-12-03T14:25:09.121Z,98315.69
2022-12-03T14:27:13.982Z,98304.66
2022-12-03T14:29:18.872Z,98313.19
2022-12-03T14:31:23.712Z,98314.81
2022-12-03T14:33:28.640Z,98314.88
2022-12-03T14:35:36.091Z,98308.31
2022-12-03T14:37:40.916Z,98311.81
2022-12-03T14:39:45.781Z,98313.53
2022-12-03T14:42:03.062Z,98315.25
2022-12-03T14:44:08.030Z,98316.91
2022-12-03T14:46:12.844Z,98317.81
2022-12-03T14:48:17.828Z,98316.19
2022-12-03T14:50:22.583Z,98310.25
2022-12-03T14:52:30.057Z,98309.41
2022-12-03T14:54:35.256Z,98309.38
2022-12-03T14:56:40.026Z,98321.38
2022-12-03T14:58:44.751Z,98315.44
2022-12-03T15:00:49.723Z,98323.13
2022-12-03T15:02:57.922Z,98322.31
2022-12-03T15:05:02.867Z,98324.03
2022-12-03T15:07:07.773Z,98321.50
2022-12-03T15:09:15.336Z,98322.31
2022-12-03T15:11:20.470Z,98314.50
2022-12-03T15:13:25.376Z,98317.88
2022-12-03T15:15:30.387Z,98311.91
2022-12-03T15:17:35.360Z,98308.44
2022-12-03T15:19:40.203Z,98313.53
2022-12-03T15:21:45.006Z,98312.75
2022-12-03T15:23:51.431Z,98307.72
2022-12-03T15:25:58.915Z,98306.88
2022-12-03T15:28:05.358Z,98303.53
2022-12-03T15:30:11.734Z,98306.94
2022-12-03T15:32:17.854Z,98301.84
2022-12-03T15:34:23.397Z,98313.03
2022-12-03T15:36:28.288Z,98303.69
2022-12-03T15:38:33.228Z,98314.78
2022-12-03T15:40:38.236Z,98320.75
2022-12-03T15:42:47.987Z,98324.13
2022-12-03T15:44:52.885Z,98326.63
2022-12-03T15:46:57.686Z,98327.34
2022-12-03T15:49:02.716Z,98319.63
2022-12-03T15:51:07.952Z,98321.31
2022-12-03T15:53:12.472Z,98317.03
2022-12-03T15:55:19.122Z,98314.50
2022-12-03T15:57:24.013Z,98315.47
2022-12-03T15:59:31.392Z,98315.47
2022-12-03T16:01:36.322Z,98318.00
2022-12-03T16:03:41.467Z,98318.72
2022-12-03T16:05:46.129Z,98312.78
2022-12-03T16:07:50.981Z,98312.00
2022-12-03T16:09:56.238Z,98311.13
2022-12-03T16:12:01.503Z,98311.34
2022-12-03T16:14:06.378Z,98322.63
2022-12-03T16:16:13.930Z,98320.03
2022-12-03T16:18:20.652Z,98327.66
2022-12-03T16:20:25.530Z,98323.34
2022-12-03T16:22:30.290Z,98315.44
2022-12-03T16:24:35.102Z,98324.00
2022-12-03T16:26:39.983Z,98323.13
2022-12-03T16:28:45.122Z,98321.34
2022-12-03T16:30:49.863Z,98323.03
2022-12-03T16:32:58.382Z,98325.66
2022-12-03T16:35:03.149Z,98328.31
2022-12-03T16:37:08.427Z,98330.03
2022-12-03T16:39:16.457Z,98329.25
2022-12-03T16:41:22.504Z,98325.88
2022-12-03T16:43:27.492Z,98318.16
2022-12-03T16:45:51.622Z,98324.16
2022-12-03T16:47:59.055Z,98322.50
2022-12-03T16:50:03.908Z,98330.28
2022-12-03T16:52:08.663Z,98326.81
2022-12-03T16:54:16.877Z,98332.06
2022-12-03T16:56:22.567Z,98331.19
2022-12-03T16:58:32.602Z,98323.53
2022-12-03T17:00:37.578Z,98326.06
2022-12-03T17:02:42.482Z,98328.63
2022-12-03T17:04:49.895Z,98331.19
2022-12-03T17:06:55.012Z,98321.78
2022-12-03T17:08:59.784Z,98320.94
2022-12-03T17:11:08.218Z,98326.16
2022-12-03T17:13:13.045Z,98318.44
2022-12-03T17:15:18.125Z,98315.00
2022-12-03T17:17:25.841Z,98322.69
2022-12-03T17:19:30.655Z,98318.44
2022-12-03T17:21:38.196Z,98316.66
2022-12-03T17:23:44.801Z,98314.91
2022-12-03T17:25:51.601Z,98311.44
2022-12-03T17:27:56.597Z,98320.03
2022-12-03T17:30:01.535Z,98313.13
2022-12-03T17:32:06.430Z,98311.41
2022-12-03T17:34:11.493Z,98303.69
2022-12-03T17:36:16.363Z,98301.94
2022-12-03T17:38:23.989Z,98290.78
2022-12-03T17:40:28.951Z,98302.84
2022-12-03T17:42:33.738Z,98295.91
2022-12-03T17:44:38.551Z,98295.13
2022-12-03T17:46:43.382Z,98289.94
2022-12-03T17:48:50.719Z,98289.06
2022-12-03T17:50:55.534Z,98289.06
2022-12-03T17:53:00.337Z,98283.03
2022-12-03T17:55:16.302Z,98276.28
2022-12-03T17:57:26.310Z,98275.47
2022-12-03T17:59:31.051Z,98275.47
2022-12-03T18:01:35.979Z,98274.69
2022-12-03T18:03:41.152Z,98275.56
2022-12-03T18:05:46.254Z,98286.69
2022-12-03T18:07:51.559Z,98285.84
2022-12-03T18:09:56.883Z,98291.72
2022-12-03T18:12:04.773Z,98289.91
2022-12-03T18:14:09.656Z,98288.16
2022-12-03T18:16:17.046Z,98290.63
2022-12-03T18:18:21.859Z,98294.06
2022-12-03T18:20:26.671Z,98283.03
2022-12-03T18:22:31.960Z,98283.13
2022-12-03T18:24:36.505Z,98286.69
2022-12-03T18:26:42.784Z,98280.75
2022-12-03T18:28:52.744Z,98279.91
2022-12-03T18:30:57.650Z,98281.63
2022-12-03T18:33:02.672Z,98289.22
2022-12-03T18:35:08.275Z,98282.38
2022-12-03T18:37:14.074Z,98276.31
2022-12-03T18:39:27.426Z,98276.28
2022-12-03T18:41:32.493Z,98278.81
2022-12-03T18:43:37.351Z,98278.91
2022-12-03T18:45:44.927Z,98273.72
2022-12-03T18:47:49.878Z,98271.19
2022-12-03T18:49:56.821Z,98265.03
2022-12-03T18:52:02.050Z,98260.81
2022-12-03T18:54:07.433Z,98264.19
2022-12-03T18:56:13.146Z,98261.56
2022-12-03T18:58:17.889Z,98253.97
2022-12-03T19:00:23.363Z,98263.63
2022-12-03T19:03:01.108Z,98260.88
2022-12-03T19:04:56.084Z,98265.06
2022-12-03T19:07:01.268Z,98258.97
2022-12-03T19:09:06.706Z,98253.81
2022-12-03T19:11:12.163Z,98257.19
2022-12-03T19:13:17.083Z,98260.59
2022-12-03T19:15:22.992Z,98264.81
2022-12-03T19:17:30.622Z,98264.84
2022-12-03T19:19:36.358Z,98254.56
2022-12-03T19:21:41.154Z,98255.44
2022-12-03T19:24:15.942Z,98252.88
2022-12-03T19:26:13.609Z,98258.91
2022-12-03T19:28:18.358Z,98258.91
2022-12-03T19:30:23.424Z,98252.13
2022-12-03T19:32:30.902Z,98252.97
2022-12-03T19:34:35.907Z,98255.56
2022-12-03T19:36:40.684Z,98244.31
2022-12-03T19:38:45.771Z,98247.72
2022-12-03T19:40:50.543Z,98246.94
2022-12-03T19:42:55.372Z,98244.28
2022-12-03T19:45:00.176Z,98243.44
2022-12-03T19:47:05.094Z,98237.53
2022-12-03T19:49:13.104Z,98237.47
2022-12-03T19:51:35.380Z,98241.75
2022-12-03T19:53:41.586Z,98242.72
2022-12-03T19:55:46.533Z,98235.84
2022-12-03T19:57:51.568Z,98234.13
2022-12-03T19:59:56.673Z,98231.53
2022-12-03T20:02:01.973Z,98234.91
2022-12-03T20:04:07.322Z,98232.47
2022-12-03T20:06:15.042Z,98234.19
2022-12-03T20:08:19.918Z,98231.63
2022-12-03T20:10:26.773Z,98241.03
2022-12-03T20:12:34.456Z,98235.03
2022-12-03T20:14:39.319Z,98238.47
2022-12-03T20:16:46.753Z,98229.91
2022-12-03T20:18:52.534Z,98235.78
2022-12-03T20:20:59.718Z,98234.88
2022-12-03T20:23:07.593Z,98244.34
2022-12-03T20:25:13.199Z,98242.59
2022-12-03T20:27:22.783Z,98244.22
2022-12-03T20:29:28.017Z,98241.50
2022-12-03T20:31:34.683Z,98234.59
2022-12-03T20:33:40.003Z,98236.28
2022-12-03T20:35:44.579Z,98242.25
2022-12-03T20:37:49.370Z,98236.22
2022-12-03T20:39:56.974Z,98235.38
2022-12-03T20:42:02.079Z,98234.53
2022-12-03T20:44:07.928Z,98239.78
2022-12-03T20:46:14.162Z,98234.66
2022-12-03T20:48:19.584Z,98234.59
2022-12-03T20:50:24.589Z,98232.00
2022-12-03T20:52:29.371Z,98230.19
2022-12-03T20:54:34.489Z,98219.00
2022-12-03T20:56:42.276Z,98231.78
2022-12-03T20:58:47.482Z,98222.50
2022-12-03T21:00:52.147Z,98214.94
2022-12-03T21:02:56.990Z,98216.81
2022-12-03T21:05:01.962Z,98221.91
2022-12-03T21:07:07.327Z,98215.88
2022-12-03T21:09:13.280Z,98234.69
2022-12-03T21:11:20.552Z,98221.75
2022-12-03T21:13:30.993Z,98229.41
2022-12-03T21:15:37.342Z,98218.25
2022-12-03T21:17:42.238Z,98215.72
2022-12-03T21:19:47.410Z,98215.78
2022-12-03T21:21:52.072Z,98207.31
2022-12-03T21:23:57.254Z,98205.53
2022-12-03T21:26:07.132Z,98206.38
2022-12-03T21:28:12.365Z,98214.94
2022-12-03T21:30:19.779Z,98207.16
2022-12-03T21:32:24.625Z,98205.50
2022-12-03T21:34:35.895Z,98210.69
2022-12-03T21:36:41.076Z,98204.59
2022-12-03T21:38:46.922Z,98205.44
2022-12-03T21:40:54.115Z,98207.16
2022-12-03T21:42:58.908Z,98197.72
2022-12-03T21:45:03.773Z,98202.00
2022-12-03T21:47:14.251Z,98202.81
2022-12-03T21:49:20.371Z,98202.03
2022-12-03T21:51:25.205Z,98203.09
2022-12-03T21:53:30.856Z,98202.25
2022-12-03T21:55:35.690Z,98194.59
2022-12-03T21:57:40.895Z,98196.22
2022-12-03T21:59:45.664Z,98200.44
2022-12-03T22:01:50.643Z,98202.06
2022-12-03T22:03:58.103Z,98201.16
2022-12-03T22:06:02.978Z,98202.00
2022-12-03T22:08:08.537Z,98198.63
2022-12-03T22:10:14.967Z,98200.34
2022-12-03T22:12:19.801Z,98208.91
2022-12-03T22:14:24.693Z,98208.06
2022-12-03T22:16:29.516Z,98196.13
2022-12-03T22:18:34.614Z,98203.00
2022-12-03T22:20:44.602Z,98196.09
2022-12-03T22:22:49.463Z,98190.88
2022-12-03T22:28:11.730Z,98200.13
2022-12-03T22:30:16.959Z,98199.19
2022-12-03T22:32:21.514Z,98179.44
2022-12-03T22:34:26.409Z,98177.81
2022-12-03T22:36:34.251Z,98167.63
2022-12-03T22:38:39.219Z,98153.91
2022-12-03T22:40:43.989Z,98149.69
2022-12-03T22:42:51.031Z,98158.38
2022-12-03T22:44:56.041Z,98159.22
2022-12-03T22:47:00.843Z,98160.88
2022-12-03T22:49:07.652Z,98154.84
2022-12-03T22:51:15.256Z,98154.16
2022-12-03T22:53:23.278Z,98154.09
2022-12-03T22:55:28.078Z,98154.06
2022-12-03T22:57:33.993Z,98145.50
2022-12-03T22:59:38.872Z,98136.00
2022-12-03T23:01:44.648Z,98141.97
2022-12-03T23:03:49.518Z,98150.59
2022-12-03T23:05:57.522Z,98151.47
2022-12-03T23:08:02.406Z,98151.44
2022-12-03T23:10:11.461Z,98148.88
2022-12-03T23:12:18.963Z,98157.31
2022-12-03T23:14:23.731Z,98152.13
2022-12-03T23:16:30.946Z,98149.44
2022-12-03T23:18:35.978Z,98149.44
2022-12-03T23:20:44.842Z,98156.31
2022-12-03T23:22:49.923Z,98148.59
2022-12-03T23:24:54.657Z,98158.84
2022-12-03T23:27:02.092Z,98157.09
2022-12-03T23:29:09.005Z,98162.22
2022-12-03T23:31:19.220Z,98157.94
2022-12-03T23:33:24.630Z,98158.00
2022-12-03T23:35:29.137Z,98159.75
2022-12-03T23:37:34.163Z,98157.22
2022-12-03T23:39:39.069Z,98152.91
2022-12-03T23:41:46.983Z,98157.16
2022-12-03T23:43:57.549Z,98145.19
2022-12-03T23:46:06.535Z,98133.25
2022-12-03T23:48:11.561Z,98139.19
2022-12-03T23:50:16.970Z,98146.06
2022-12-03T23:52:21.791Z,98152.06
2022-12-03T23:54:26.733Z,98141.66
2022-12-03T23:56:33.090Z,98137.34
2022-12-03T23:58:38.707Z,98146.06
